Time;durP1;ratioP1;P1;durP2;ratioP2;P2;SDS_P1;SDS_P2;PMS_P1;PMS_P2;Temp;Humidity;BMP_temperature;BMP_pressure;BME280_temperature;BME280_humidity;BME280_pressure;Samples;Min_cycle;Max_cycle;Signal;HPM_P1;HPM_P2
2020/12/17 00:01:55;;;;;;;;;;;6.70;99.90;;;;;;5096872;28;19958;-71
2020/12/17 00:04:21;;;;;;;;;;;6.60;99.90;;;;;;5111777;28;19924;-71
2020/12/17 00:06:47;;;;;;;;;;;6.60;99.90;;;;;;5109583;28;19924;-71
2020/12/17 00:09:14;;;;;;;;;;;6.60;99.90;;;;;;5111258;28;19930;-70
2020/12/17 00:11:41;;;;;;;;;;;6.60;99.90;;;;;;5109276;28;20287;-70
2020/12/17 00:14:07;;;;;;;;;;;6.60;99.90;;;;;;5111254;28;20400;-71
2020/12/17 00:16:33;;;;;;;;;;;6.60;99.90;;;;;;5110302;28;19924;-72
2020/12/17 00:19:00;;;;;;;;;;;6.60;99.90;;;;;;5111996;28;19924;-71
2020/12/17 00:21:26;;;;;;;;;;;6.60;99.90;;;;;;5111728;28;19950;-70
2020/12/17 00:23:52;;;;;;;;;;;6.60;99.90;;;;;;5109776;28;19931;-70
2020/12/17 00:26:19;;;;;;;;;;;6.50;99.90;;;;;;5110172;28;19930;-71
2020/12/17 00:28:46;;;;;;;;;;;6.50;99.90;;;;;;5109703;28;20026;-70
2020/12/17 00:31:16;;;;;;;;;;;6.50;99.90;;;;;;5111603;28;19958;-70
2020/12/17 00:33:43;;;;;;;;;;;6.50;99.90;;;;;;5109562;28;19974;-70
2020/12/17 00:36:09;;;;;;;;;;;6.50;99.90;;;;;;5110310;28;20315;-70
2020/12/17 00:38:35;;;;;;;;;;;6.40;99.90;;;;;;5109558;28;20451;-70
2020/12/17 00:41:02;;;;;;;;;;;6.40;99.90;;;;;;5112366;28;19924;-77
2020/12/17 00:43:28;;;;;;;;;;;6.40;99.90;;;;;;5109289;28;19924;-75
2020/12/17 00:45:55;;;;;;;;;;;6.30;99.90;;;;;;5112504;28;19935;-70
2020/12/17 00:48:22;;;;;;;;;;;6.20;99.90;;;;;;5112715;28;20206;-71
2020/12/17 00:50:48;;;;;;;;;;;6.20;99.90;;;;;;5115629;28;19924;-70
2020/12/17 00:53:14;;;;;;;;;;;6.10;99.90;;;;;;5112432;28;19932;-70
2020/12/17 00:55:41;;;;;;;;;;;6.10;99.90;;;;;;5115517;28;19928;-70
2020/12/17 00:58:07;;;;;;;;;;;6.10;99.90;;;;;;5113693;28;19980;-82
2020/12/17 01:00:33;;;;;;;;;;;6.10;99.90;;;;;;5114501;28;19947;-70
2020/12/17 01:03:01;;;;;;;;;;;6.10;99.90;;;;;;5115593;28;19973;-70
2020/12/17 01:05:27;;;;;;;;;;;6.10;99.90;;;;;;5112801;28;20443;-70
2020/12/17 01:07:53;;;;;;;;;;;6.10;99.90;;;;;;5115320;28;20422;-70
2020/12/17 01:10:20;;;;;;;;;;;6.10;99.90;;;;;;5111495;28;19930;-70
2020/12/17 01:12:46;;;;;;;;;;;6.10;99.90;;;;;;5114537;28;19924;-70
2020/12/17 01:15:12;;;;;;;;;;;6.10;99.90;;;;;;5111690;28;19924;-70
2020/12/17 01:17:39;;;;;;;;;;;6.10;99.90;;;;;;5115437;28;19924;-70
2020/12/17 01:20:06;;;;;;;;;;;6.20;99.90;;;;;;5112670;28;19973;-70
2020/12/17 01:22:32;;;;;;;;;;;6.20;99.90;;;;;;5115769;27;19924;-70
2020/12/17 01:24:58;;;;;;;;;;;6.20;99.90;;;;;;5112597;28;19924;-70
2020/12/17 01:27:28;;;;;;;;;;;6.30;99.90;;;;;;5114663;28;19924;-71
2020/12/17 01:29:54;;;;;;;;;;;6.30;99.90;;;;;;5112176;28;19990;-70
2020/12/17 01:32:21;;;;;;;;;;;6.20;99.90;;;;;;5114381;28;19924;-70
2020/12/17 01:34:47;;;;;;;;;;;6.20;99.90;;;;;;5112347;27;20288;-70
2020/12/17 01:37:14;;;;;;;;;;;6.20;99.90;;;;;;5114213;28;19931;-71
2020/12/17 01:39:41;;;;;;;;;;;6.20;99.90;;;;;;5115132;28;19959;-70
2020/12/17 01:42:07;;;;;;;;;;;6.20;99.90;;;;;;5111328;28;19924;-70
2020/12/17 01:44:38;;;;;;;;;;;6.20;99.90;;;;;;5114544;28;19928;-70
2020/12/17 01:47:04;;;;;;;;;;;6.10;99.90;;;;;;5111556;28;19924;-72
2020/12/17 01:49:31;;;;;;;;;;;6.20;99.90;;;;;;5114453;28;20365;-69
2020/12/17 01:51:57;;;;;;;;;;;6.10;99.90;;;;;;5111757;28;20466;-69
2020/12/17 01:54:24;;;;;;;;;;;6.10;99.90;;;;;;5114148;28;19966;-70
2020/12/17 01:56:54;;;;;;;;;;;6.10;99.90;;;;;;5112242;28;20280;-70
2020/12/17 01:59:22;;;;;;;;;;;6.10;99.90;;;;;;5113899;28;19955;-70
2020/12/17 02:01:49;;;;;;;;;;;6.10;99.90;;;;;;5111789;28;19928;-70
2020/12/17 02:04:16;;;;;;;;;;;6.00;99.90;;;;;;5113731;28;19927;-70
2020/12/17 02:06:43;;;;;;;;;;;6.00;99.90;;;;;;5112007;28;19931;-70
2020/12/17 02:09:09;;;;;;;;;;;5.90;99.90;;;;;;5113367;28;19927;-70
2020/12/17 02:11:36;;;;;;;;;;;5.90;99.90;;;;;;5111412;28;19950;-69
2020/12/17 02:14:02;;;;;;;;;;;5.90;99.90;;;;;;5114035;28;19923;-76
2020/12/17 02:16:29;;;;;;;;;;;6.00;99.90;;;;;;5110993;28;20253;-72
2020/12/17 02:18:55;;;;;;;;;;;5.90;99.90;;;;;;5114231;27;20300;-69
2020/12/17 02:21:22;;;;;;;;;;;6.00;99.90;;;;;;5111429;28;19928;-82
2020/12/17 02:23:48;;;;;;;;;;;5.90;99.90;;;;;;5113198;28;19928;-70
2020/12/17 02:26:16;;;;;;;;;;;6.00;99.90;;;;;;5113116;28;19928;-70
2020/12/17 02:28:42;;;;;;;;;;;6.00;99.90;;;;;;5111131;28;19924;-70
2020/12/17 02:31:08;;;;;;;;;;;6.00;99.90;;;;;;5112861;28;20388;-70
2020/12/17 02:33:35;;;;;;;;;;;5.90;99.90;;;;;;5110590;28;19928;-69
2020/12/17 02:36:01;;;;;;;;;;;5.90;99.90;;;;;;5113401;28;20402;-70
2020/12/17 02:38:27;;;;;;;;;;;5.90;99.90;;;;;;5110725;28;19969;-70
2020/12/17 02:40:54;;;;;;;;;;;6.00;99.90;;;;;;5113591;28;19924;-70
2020/12/17 02:43:21;;;;;;;;;;;6.00;99.90;;;;;;5109426;28;19924;-69
2020/12/17 02:45:47;;;;;;;;;;;6.00;99.90;;;;;;5113583;28;19924;-72
2020/12/17 02:48:15;;;;;;;;;;;6.00;99.90;;;;;;5110471;28;20014;-69
2020/12/17 02:50:42;;;;;;;;;;;6.00;99.90;;;;;;5113335;28;19930;-71
2020/12/17 02:53:08;;;;;;;;;;;6.00;99.90;;;;;;5107967;28;19969;-69
2020/12/17 02:55:35;;;;;;;;;;;6.00;99.90;;;;;;5113569;28;19928;-70
2020/12/17 02:58:01;;;;;;;;;;;6.10;99.90;;;;;;5110900;28;19931;-69
2020/12/17 03:00:28;;;;;;;;;;;6.10;99.90;;;;;;5112925;28;19920;-69
2020/12/17 03:02:55;;;;;;;;;;;6.10;99.90;;;;;;5103070;28;20019;-70
2020/12/17 03:05:21;;;;;;;;;;;6.20;99.90;;;;;;5111221;28;19923;-70
2020/12/17 03:07:47;;;;;;;;;;;6.20;99.90;;;;;;5113125;28;19927;-69
2020/12/17 03:10:13;;;;;;;;;;;6.20;99.90;;;;;;5108390;28;20288;-69
2020/12/17 03:12:40;;;;;;;;;;;6.10;99.90;;;;;;5101300;28;20254;-69
2020/12/17 03:15:08;;;;;;;;;;;6.10;99.90;;;;;;5104527;28;19927;-70
2020/12/17 03:17:35;;;;;;;;;;;6.10;99.90;;;;;;5113322;28;19923;-70
2020/12/17 03:20:01;;;;;;;;;;;6.10;99.90;;;;;;5110129;28;20391;-71
2020/12/17 03:22:28;;;;;;;;;;;6.10;99.90;;;;;;5112766;28;19924;-71
2020/12/17 03:24:54;;;;;;;;;;;6.10;99.90;;;;;;5110257;28;19930;-69
2020/12/17 03:27:20;;;;;;;;;;;6.00;99.90;;;;;;5112102;28;19954;-71
2020/12/17 03:29:47;;;;;;;;;;;6.00;99.90;;;;;;5109771;28;19928;-71
2020/12/17 03:32:13;;;;;;;;;;;6.00;99.90;;;;;;5111772;28;20308;-71
2020/12/17 03:34:40;;;;;;;;;;;6.00;99.90;;;;;;5108338;28;19946;-71
2020/12/17 03:37:08;;;;;;;;;;;6.00;99.90;;;;;;5112087;27;20406;-71
2020/12/17 03:39:34;;;;;;;;;;;6.00;99.90;;;;;;5106314;28;20316;-71
2020/12/17 03:42:00;;;;;;;;;;;5.90;99.90;;;;;;5112464;28;20015;-72
2020/12/17 03:44:27;;;;;;;;;;;5.90;99.90;;;;;;5112038;28;20502;-71
2020/12/17 03:46:53;;;;;;;;;;;5.90;99.90;;;;;;5110299;28;19923;-70
2020/12/17 03:49:19;;;;;;;;;;;5.80;99.90;;;;;;5112109;28;19946;-71
2020/12/17 03:51:47;;;;;;;;;;;5.80;99.90;;;;;;5109927;28;19942;-71
2020/12/17 03:54:13;;;;;;;;;;;5.90;99.90;;;;;;5111550;28;19923;-71
2020/12/17 03:56:39;;;;;;;;;;;5.80;99.90;;;;;;5110372;28;20023;-71
2020/12/17 03:59:06;;;;;;;;;;;5.90;99.90;;;;;;5112173;28;20015;-75
2020/12/17 04:01:32;;;;;;;;;;;5.90;99.90;;;;;;5110074;28;19970;-72
2020/12/17 04:03:58;;;;;;;;;;;5.90;99.90;;;;;;5112812;28;19930;-71
2020/12/17 04:06:24;;;;;;;;;;;5.90;99.90;;;;;;5109504;28;20014;-71
2020/12/17 04:08:52;;;;;;;;;;;5.90;99.90;;;;;;5111846;28;20269;-71
2020/12/17 04:11:18;;;;;;;;;;;5.80;99.90;;;;;;5108863;28;19969;-71
2020/12/17 04:13:44;;;;;;;;;;;5.80;99.90;;;;;;5112113;28;20320;-71
2020/12/17 04:16:10;;;;;;;;;;;5.80;99.90;;;;;;5108781;28;19938;-71
2020/12/17 04:18:37;;;;;;;;;;;5.80;99.90;;;;;;5112698;28;19951;-71
2020/12/17 04:21:03;;;;;;;;;;;5.80;99.90;;;;;;5109351;28;19931;-72
2020/12/17 04:23:29;;;;;;;;;;;5.80;99.90;;;;;;5116353;28;19924;-75
2020/12/17 04:25:59;;;;;;;;;;;5.70;99.90;;;;;;5116192;28;19972;-68
2020/12/17 04:28:25;;;;;;;;;;;5.70;99.90;;;;;;5113284;28;20123;-71
2020/12/17 04:30:51;;;;;;;;;;;5.70;99.90;;;;;;5116054;28;20022;-69
2020/12/17 04:33:18;;;;;;;;;;;5.70;99.90;;;;;;5112425;28;19924;-70
2020/12/17 04:35:44;;;;;;;;;;;5.70;99.90;;;;;;5116052;28;19933;-71
2020/12/17 04:38:10;;;;;;;;;;;5.70;99.90;;;;;;5113039;28;19930;-70
2020/12/17 04:40:37;;;;;;;;;;;5.70;99.90;;;;;;5116075;28;19923;-70
2020/12/17 04:43:04;;;;;;;;;;;5.80;99.90;;;;;;5110414;28;19924;-77
2020/12/17 04:45:31;;;;;;;;;;;5.70;99.90;;;;;;5115787;28;19923;-70
2020/12/17 04:47:57;;;;;;;;;;;5.70;99.90;;;;;;5113296;28;19985;-69
2020/12/17 04:50:25;;;;;;;;;;;5.70;99.90;;;;;;5114863;28;20015;-70
2020/12/17 04:52:52;;;;;;;;;;;5.60;99.90;;;;;;5112987;28;19928;-70
2020/12/17 04:55:20;;;;;;;;;;;5.50;99.90;;;;;;5115155;28;19977;-70
2020/12/17 04:57:47;;;;;;;;;;;5.50;99.90;;;;;;5112951;28;21407;-70
2020/12/17 05:00:14;;;;;;;;;;;5.50;99.90;;;;;;5115003;28;19923;-70
2020/12/17 05:02:44;;;;;;;;;;;5.50;99.90;;;;;;5113033;28;19930;-70
2020/12/17 05:05:10;;;;;;;;;;;5.40;99.90;;;;;;5114919;28;20014;-70
2020/12/17 05:07:37;;;;;;;;;;;5.40;99.90;;;;;;5115319;28;19927;-70
2020/12/17 05:10:03;;;;;;;;;;;5.30;99.90;;;;;;5111581;28;19923;-71
2020/12/17 05:12:30;;;;;;;;;;;5.40;99.90;;;;;;5115150;28;19924;-70
2020/12/17 05:14:56;;;;;;;;;;;5.30;99.90;;;;;;5112598;28;19949;-70
2020/12/17 05:17:23;;;;;;;;;;;5.30;99.90;;;;;;5114376;28;20402;-70
2020/12/17 05:19:50;;;;;;;;;;;5.20;99.90;;;;;;5111879;28;19931;-70
2020/12/17 05:22:16;;;;;;;;;;;5.20;99.90;;;;;;5114691;28;20269;-70
2020/12/17 05:24:43;;;;;;;;;;;5.20;99.90;;;;;;5112414;28;19931;-69
2020/12/17 05:27:10;;;;;;;;;;;5.20;99.90;;;;;;5114145;28;19923;-69
2020/12/17 05:29:37;;;;;;;;;;;5.10;99.90;;;;;;5111934;28;19931;-70
2020/12/17 05:32:03;;;;;;;;;;;5.10;99.90;;;;;;5114293;28;19930;-78
2020/12/17 05:34:30;;;;;;;;;;;5.10;99.90;;;;;;5112196;28;19971;-70
2020/12/17 05:36:57;;;;;;;;;;;5.10;99.90;;;;;;5114797;28;19981;-69
2020/12/17 05:39:24;;;;;;;;;;;5.00;99.90;;;;;;5101056;28;20130;-69
2020/12/17 05:41:51;;;;;;;;;;;5.00;99.90;;;;;;5114673;28;19928;-70
2020/12/17 05:44:18;;;;;;;;;;;5.00;99.90;;;;;;5111054;28;19930;-70
2020/12/17 05:46:45;;;;;;;;;;;5.00;99.90;;;;;;5114803;28;19924;-70
2020/12/17 05:49:12;;;;;;;;;;;5.00;99.90;;;;;;5114206;28;19923;-70
2020/12/17 05:51:40;;;;;;;;;;;5.00;99.90;;;;;;5111636;28;20265;-70
2020/12/17 05:54:08;;;;;;;;;;;5.00;99.90;;;;;;5114123;28;20026;-72
2020/12/17 05:56:34;;;;;;;;;;;5.00;99.90;;;;;;5111974;28;20351;-70
2020/12/17 05:59:01;;;;;;;;;;;5.00;99.90;;;;;;5114444;28;19970;-70
2020/12/17 06:01:28;;;;;;;;;;;5.00;99.90;;;;;;5111023;27;19927;-71
2020/12/17 06:03:54;;;;;;;;;;;5.00;99.90;;;;;;5114460;28;19924;-70
2020/12/17 06:06:20;;;;;;;;;;;4.90;99.90;;;;;;5110787;28;20364;-70
2020/12/17 06:08:50;;;;;;;;;;;4.90;99.90;;;;;;5113865;28;19923;-70
2020/12/17 06:11:17;;;;;;;;;;;4.90;99.90;;;;;;5110573;28;19924;-70
2020/12/17 06:13:44;;;;;;;;;;;4.90;99.90;;;;;;5114603;28;19928;-70
2020/12/17 06:16:12;;;;;;;;;;;4.80;99.90;;;;;;5110399;28;19958;-70
2020/12/17 06:18:47;;;;;;;;;;;4.90;99.90;;;;;;5114172;28;20384;-70
2020/12/17 06:21:15;;;;;;;;;;;4.80;99.90;;;;;;5110338;27;19930;-70
2020/12/17 06:23:42;;;;;;;;;;;4.80;99.90;;;;;;5114063;28;19959;-70
2020/12/17 06:26:09;;;;;;;;;;;4.80;99.90;;;;;;5111016;28;19919;-70
2020/12/17 06:28:37;;;;;;;;;;;4.80;99.90;;;;;;5114023;28;20388;-70
2020/12/17 06:31:04;;;;;;;;;;;4.70;99.90;;;;;;5110463;28;20387;-71
2020/12/17 06:33:35;;;;;;;;;;;4.70;99.90;;;;;;5113858;28;19923;-73
2020/12/17 06:36:03;;;;;;;;;;;4.60;99.90;;;;;;5113392;28;20416;-80
2020/12/17 06:38:30;;;;;;;;;;;4.70;99.90;;;;;;5111213;28;20280;-70
2020/12/17 06:40:56;;;;;;;;;;;4.70;99.90;;;;;;5113763;28;20372;-70
2020/12/17 06:43:32;;;;;;;;;;;4.60;99.90;;;;;;5108427;28;20400;-70
2020/12/17 06:45:58;;;;;;;;;;;4.70;99.90;;;;;;5113541;28;19967;-70
2020/12/17 06:48:28;;;;;;;;;;;4.60;99.90;;;;;;5110065;28;19919;-70
2020/12/17 06:50:55;;;;;;;;;;;4.60;99.90;;;;;;5112973;28;19924;-70
2020/12/17 06:53:36;;;;;;;;;;;4.60;99.90;;;;;;5109820;28;19930;-69
2020/12/17 06:56:02;;;;;;;;;;;4.60;99.90;;;;;;5113376;28;19924;-75
2020/12/17 06:58:28;;;;;;;;;;;4.60;99.90;;;;;;5109772;28;19930;-70
2020/12/17 07:00:56;;;;;;;;;;;4.60;99.90;;;;;;5106251;28;19924;-70
2020/12/17 07:03:41;;;;;;;;;;;4.60;99.90;;;;;;5099346;28;19985;-69
2020/12/17 07:06:14;;;;;;;;;;;4.60;99.90;;;;;;5112400;28;19924;-70
2020/12/17 07:08:41;;;;;;;;;;;4.60;99.90;;;;;;5109302;28;20015;-72
2020/12/17 07:11:07;;;;;;;;;;;4.60;99.90;;;;;;5112453;28;20372;-69
2020/12/17 07:13:40;;;;;;;;;;;4.60;99.90;;;;;;5100618;28;20330;-70
2020/12/17 07:16:17;;;;;;;;;;;4.60;99.90;;;;;;5112368;28;19959;-72
2020/12/17 07:18:44;;;;;;;;;;;4.60;99.90;;;;;;5102116;28;20376;-70
2020/12/17 07:21:10;;;;;;;;;;;4.70;99.90;;;;;;5091583;28;20265;-70
2020/12/17 07:23:37;;;;;;;;;;;4.70;99.90;;;;;;5095738;28;19924;-70
2020/12/17 07:26:11;;;;;;;;;;;4.70;99.90;;;;;;5112316;28;20304;-73
2020/12/17 07:28:38;;;;;;;;;;;4.70;99.90;;;;;;5110275;28;19919;-70
2020/12/17 07:31:05;;;;;;;;;;;4.70;99.90;;;;;;5111668;28;19931;-77
2020/12/17 07:33:43;;;;;;;;;;;4.70;99.90;;;;;;5110147;28;19924;-70
2020/12/17 07:36:10;;;;;;;;;;;4.60;99.90;;;;;;5112064;28;20347;-70
2020/12/17 07:38:37;;;;;;;;;;;4.70;99.90;;;;;;5103490;28;20437;-72
2020/12/17 07:41:04;;;;;;;;;;;4.70;99.90;;;;;;5111491;28;19924;-81
2020/12/17 07:43:40;;;;;;;;;;;4.70;99.90;;;;;;5100209;28;19950;-70
2020/12/17 07:46:08;;;;;;;;;;;4.70;99.90;;;;;;5109010;28;20375;-76
2020/12/17 07:48:39;;;;;;;;;;;4.70;99.90;;;;;;5113404;28;19959;-71
2020/12/17 07:51:07;;;;;;;;;;;4.60;99.90;;;;;;5108932;28;19927;-70
2020/12/17 07:53:34;;;;;;;;;;;4.70;99.90;;;;;;5112576;28;20383;-70
2020/12/17 07:56:01;;;;;;;;;;;4.80;99.90;;;;;;5111724;28;19928;-70
2020/12/17 07:58:28;;;;;;;;;;;4.70;99.90;;;;;;5116683;28;19924;-70
2020/12/17 08:00:54;;;;;;;;;;;4.80;99.90;;;;;;5113926;28;20306;-70
2020/12/17 08:03:21;;;;;;;;;;;4.80;99.90;;;;;;5116331;27;19924;-71
2020/12/17 08:05:48;;;;;;;;;;;4.80;99.90;;;;;;5109264;28;19963;-70
2020/12/17 08:08:15;;;;;;;;;;;4.80;99.90;;;;;;5115829;28;19924;-70
2020/12/17 08:10:42;;;;;;;;;;;4.70;99.90;;;;;;5113498;28;19924;-71
2020/12/17 08:13:08;;;;;;;;;;;4.70;99.90;;;;;;5115778;28;19967;-71
2020/12/17 08:15:36;;;;;;;;;;;4.70;99.90;;;;;;5113832;28;19924;-71
2020/12/17 08:18:03;;;;;;;;;;;4.70;99.90;;;;;;5116872;27;19923;-71
2020/12/17 08:20:30;;;;;;;;;;;4.70;99.90;;;;;;5113604;28;19931;-71
2020/12/17 08:22:56;;;;;;;;;;;4.70;99.90;;;;;;5116206;28;19934;-70
2020/12/17 08:25:24;;;;;;;;;;;4.70;99.90;;;;;;5114105;28;20685;-73
2020/12/17 08:27:51;;;;;;;;;;;4.70;99.90;;;;;;5115340;28;20018;-70
2020/12/17 08:30:18;;;;;;;;;;;4.70;99.90;;;;;;5115133;28;19968;-71
2020/12/17 08:32:48;;;;;;;;;;;4.70;99.90;;;;;;5113806;28;20338;-71
2020/12/17 08:35:18;;;;;;;;;;;4.60;99.90;;;;;;5115173;28;19924;-71
2020/12/17 08:37:45;;;;;;;;;;;4.70;99.90;;;;;;5099936;28;20316;-70
2020/12/17 08:40:12;;;;;;;;;;;4.70;99.90;;;;;;5103145;28;19924;-71
2020/12/17 08:42:42;;;;;;;;;;;4.70;99.90;;;;;;5107078;28;19924;-70
2020/12/17 08:45:10;;;;;;;;;;;4.70;99.90;;;;;;5115441;28;19923;-72
2020/12/17 08:47:37;;;;;;;;;;;4.80;99.90;;;;;;5113015;27;20348;-71
2020/12/17 08:50:05;;;;;;;;;;;4.90;99.90;;;;;;5116026;28;19927;-71
2020/12/17 08:52:32;;;;;;;;;;;5.00;99.90;;;;;;5113877;28;19923;-71
2020/12/17 08:55:02;;;;;;;;;;;5.10;99.90;;;;;;5115841;28;20360;-71
2020/12/17 08:57:29;;;;;;;;;;;5.00;99.90;;;;;;5112448;28;20383;-73
2020/12/17 08:59:56;;;;;;;;;;;5.00;99.90;;;;;;5115756;28;20425;-70
2020/12/17 09:02:23;;;;;;;;;;;5.00;99.90;;;;;;5112925;28;20245;-70
2020/12/17 09:04:56;;;;;;;;;;;4.90;99.90;;;;;;5115322;28;20380;-70
2020/12/17 09:07:26;;;;;;;;;;;5.00;99.90;;;;;;5111902;28;19928;-70
2020/12/17 09:09:52;;;;;;;;;;;4.90;99.90;;;;;;5114644;28;19931;-70
2020/12/17 09:12:28;;;;;;;;;;;4.90;99.90;;;;;;5112199;27;19930;-71
2020/12/17 09:15:04;;;;;;;;;;;4.90;99.90;;;;;;5115319;28;19924;-70
2020/12/17 09:17:30;;;;;;;;;;;5.00;99.90;;;;;;5112385;28;19966;-71
2020/12/17 09:19:56;;;;;;;;;;;5.00;99.90;;;;;;5114878;28;20300;-70
2020/12/17 09:22:30;;;;;;;;;;;5.00;99.90;;;;;;5114465;28;19973;-70
2020/12/17 09:24:57;;;;;;;;;;;5.00;99.90;;;;;;5112678;28;19928;-70
2020/12/17 09:27:24;;;;;;;;;;;5.00;99.90;;;;;;5114759;28;19930;-71
2020/12/17 09:30:05;;;;;;;;;;;5.00;99.90;;;;;;5112427;28;19928;-70
2020/12/17 09:32:32;;;;;;;;;;;5.00;99.90;;;;;;5114756;28;19998;-71
2020/12/17 09:35:06;;;;;;;;;;;5.00;99.90;;;;;;5112474;28;19976;-70
2020/12/17 09:37:33;;;;;;;;;;;5.10;99.90;;;;;;5101199;28;19967;-71
2020/12/17 09:39:59;;;;;;;;;;;5.10;99.90;;;;;;5093184;28;20304;-71
2020/12/17 09:42:26;;;;;;;;;;;5.20;99.90;;;;;;5101232;28;20437;-71
2020/12/17 09:44:52;;;;;;;;;;;5.10;99.90;;;;;;5111932;28;20023;-70
2020/12/17 09:47:33;;;;;;;;;;;5.10;99.90;;;;;;5113693;28;19951;-71
2020/12/17 09:50:09;;;;;;;;;;;5.20;99.90;;;;;;5111912;28;19924;-71
2020/12/17 09:52:36;;;;;;;;;;;5.20;99.90;;;;;;5114692;28;19924;-71
2020/12/17 09:55:02;;;;;;;;;;;5.20;99.90;;;;;;5112660;28;19928;-76
2020/12/17 09:57:39;;;;;;;;;;;5.20;99.90;;;;;;5114130;28;19930;-72
2020/12/17 10:00:07;;;;;;;;;;;5.30;99.90;;;;;;5111766;28;19959;-71
2020/12/17 10:02:39;;;;;;;;;;;5.30;99.90;;;;;;5114489;28;20056;-70
2020/12/17 10:05:06;;;;;;;;;;;5.30;99.90;;;;;;5111521;28;19931;-71
2020/12/17 10:07:33;;;;;;;;;;;5.30;99.90;;;;;;5114274;28;19931;-71
2020/12/17 10:09:59;;;;;;;;;;;5.30;99.90;;;;;;5111126;28;19924;-71
2020/12/17 10:12:25;;;;;;;;;;;5.40;99.90;;;;;;5113564;28;19984;-71
2020/12/17 10:14:52;;;;;;;;;;;5.40;99.90;;;;;;5111691;28;19924;-71
2020/12/17 10:17:18;;;;;;;;;;;5.60;99.90;;;;;;5113660;28;20014;-71
2020/12/17 10:19:46;;;;;;;;;;;5.60;99.90;;;;;;5113988;28;19924;-71
2020/12/17 10:22:12;;;;;;;;;;;5.60;99.90;;;;;;5111883;28;19963;-71
2020/12/17 10:24:38;;;;;;;;;;;5.60;99.90;;;;;;5114043;28;19924;-71
2020/12/17 10:27:05;;;;;;;;;;;5.60;99.90;;;;;;5110901;28;19930;-72
2020/12/17 10:29:31;;;;;;;;;;;5.70;99.90;;;;;;5113758;28;19924;-73
2020/12/17 10:31:58;;;;;;;;;;;5.70;99.90;;;;;;5110682;28;20383;-70
2020/12/17 10:34:24;;;;;;;;;;;5.70;99.90;;;;;;5108217;28;19930;-70
2020/12/17 10:36:52;;;;;;;;;;;5.70;99.90;;;;;;5111616;28;19930;-70
2020/12/17 10:39:18;;;;;;;;;;;5.70;99.90;;;;;;5112983;28;20396;-70
2020/12/17 10:41:44;;;;;;;;;;;5.70;99.90;;;;;;5111866;28;19924;-70
2020/12/17 10:44:11;;;;;;;;;;;5.70;99.90;;;;;;5113053;28;19927;-70
2020/12/17 10:46:38;;;;;;;;;;;5.70;99.90;;;;;;5111873;28;19930;-70
2020/12/17 10:49:04;;;;;;;;;;;5.80;99.90;;;;;;5111936;28;19928;-73
2020/12/17 10:51:31;;;;;;;;;;;5.80;99.90;;;;;;5111290;28;19967;-73
2020/12/17 10:53:58;;;;;;;;;;;5.90;99.90;;;;;;5112679;28;20322;-70
2020/12/17 10:56:25;;;;;;;;;;;6.00;99.90;;;;;;5111172;28;19923;-70
2020/12/17 10:58:52;;;;;;;;;;;6.10;99.90;;;;;;5113357;27;20441;-70
2020/12/17 11:01:20;;;;;;;;;;;6.10;99.90;;;;;;5113076;27;19931;-71
2020/12/17 11:03:46;;;;;;;;;;;6.10;99.90;;;;;;5110375;28;19923;-71
2020/12/17 11:06:14;;;;;;;;;;;6.20;99.90;;;;;;5112393;28;20367;-71
2020/12/17 11:08:40;;;;;;;;;;;6.20;99.90;;;;;;5110558;28;19924;-77
2020/12/17 11:11:08;;;;;;;;;;;6.30;99.90;;;;;;5112514;28;19973;-72
2020/12/17 11:13:34;;;;;;;;;;;6.30;99.90;;;;;;5099034;28;20022;-72
2020/12/17 11:16:01;;;;;;;;;;;6.30;99.90;;;;;;5112000;28;19943;-72
2020/12/17 11:18:27;;;;;;;;;;;6.40;99.90;;;;;;5108028;28;20308;-72
2020/12/17 11:20:53;;;;;;;;;;;6.50;99.90;;;;;;5111700;28;19924;-72
2020/12/17 11:23:20;;;;;;;;;;;6.50;99.90;;;;;;5105386;28;19932;-72
2020/12/17 11:25:46;;;;;;;;;;;6.70;99.90;;;;;;5109616;28;19973;-71
2020/12/17 11:28:14;;;;;;;;;;;6.80;99.90;;;;;;5102397;28;20437;-75
2020/12/17 11:30:40;;;;;;;;;;;6.90;99.90;;;;;;5096092;28;19924;-72
2020/12/17 11:33:06;;;;;;;;;;;7.10;99.90;;;;;;5093315;28;20355;-76
2020/12/17 11:35:33;;;;;;;;;;;7.40;99.90;;;;;;5101990;28;19924;-71
2020/12/17 11:38:00;;;;;;;;;;;7.60;99.90;;;;;;5104670;28;19924;-71
2020/12/17 11:40:26;;;;;;;;;;;7.90;99.90;;;;;;5109453;28;20528;-71
2020/12/17 11:42:54;;;;;;;;;;;8.00;99.90;;;;;;5112440;28;20016;-71
2020/12/17 11:45:22;;;;;;;;;;;8.20;99.90;;;;;;5108256;28;19927;-71
2020/12/17 11:47:48;;;;;;;;;;;8.00;99.90;;;;;;5103018;28;19927;-71
2020/12/17 11:50:14;;;;;;;;;;;8.10;99.90;;;;;;5105027;28;20373;-72
2020/12/17 11:52:41;;;;;;;;;;;8.20;99.90;;;;;;5092136;28;19924;-72
2020/12/17 11:55:08;;;;;;;;;;;8.30;99.90;;;;;;5108216;28;19928;-76
2020/12/17 11:57:34;;;;;;;;;;;8.30;99.90;;;;;;5103492;28;19939;-72
2020/12/17 12:00:01;;;;;;;;;;;8.30;99.90;;;;;;5104607;28;20402;-72
2020/12/17 12:02:28;;;;;;;;;;;8.40;99.90;;;;;;5111848;28;20443;-72
2020/12/17 12:04:54;;;;;;;;;;;8.40;99.90;;;;;;5106778;28;19931;-72
2020/12/17 12:07:23;;;;;;;;;;;8.40;99.90;;;;;;5110448;28;19924;-72
2020/12/17 12:09:49;;;;;;;;;;;8.40;99.90;;;;;;5106662;28;20038;-72
2020/12/17 12:12:15;;;;;;;;;;;8.50;99.90;;;;;;5106944;28;19931;-71
2020/12/17 12:14:42;;;;;;;;;;;8.60;99.90;;;;;;5100482;28;20018;-72
2020/12/17 12:17:08;;;;;;;;;;;8.70;99.90;;;;;;5108996;28;19930;-71
2020/12/17 12:19:36;;;;;;;;;;;8.70;99.90;;;;;;5107674;28;19924;-71
2020/12/17 12:22:02;;;;;;;;;;;8.80;99.90;;;;;;5110142;28;20427;-74
2020/12/17 12:24:29;;;;;;;;;;;8.50;99.90;;;;;;5111198;28;19924;-72
2020/12/17 12:26:57;;;;;;;;;;;8.40;99.90;;;;;;5105886;28;20372;-72
2020/12/17 12:29:25;;;;;;;;;;;8.60;99.90;;;;;;5102217;28;19946;-72
2020/12/17 12:31:51;;;;;;;;;;;8.80;99.90;;;;;;5107773;28;19928;-74
2020/12/17 12:34:19;;;;;;;;;;;8.60;99.90;;;;;;5110555;28;19942;-73
2020/12/17 12:36:48;;;;;;;;;;;8.50;99.90;;;;;;5109400;28;19931;-72
2020/12/17 12:39:15;;;;;;;;;;;8.70;99.90;;;;;;5110981;28;19924;-72
2020/12/17 12:41:41;;;;;;;;;;;8.60;99.90;;;;;;5109811;28;19930;-72
2020/12/17 12:44:08;;;;;;;;;;;8.60;99.90;;;;;;5114615;28;19924;-72
2020/12/17 12:46:34;;;;;;;;;;;8.50;99.90;;;;;;5112551;28;19930;-71
2020/12/17 12:49:00;;;;;;;;;;;8.50;99.90;;;;;;5115881;28;19967;-71
2020/12/17 12:51:27;;;;;;;;;;;8.50;99.90;;;;;;5111626;28;19923;-71
2020/12/17 12:53:54;;;;;;;;;;;8.40;99.90;;;;;;5115481;28;20020;-71
2020/12/17 12:56:23;;;;;;;;;;;8.40;99.90;;;;;;5111917;28;19923;-71
2020/12/17 12:58:49;;;;;;;;;;;8.40;99.90;;;;;;5115585;28;20416;-71
2020/12/17 13:01:15;;;;;;;;;;;8.50;99.90;;;;;;5111982;28;19930;-71
2020/12/17 13:03:42;;;;;;;;;;;8.50;99.90;;;;;;5115119;28;19924;-71
2020/12/17 13:06:13;;;;;;;;;;;8.40;99.90;;;;;;5114858;28;19924;-72
2020/12/17 13:08:40;;;;;;;;;;;8.60;99.90;;;;;;5114400;28;19927;-74
2020/12/17 13:11:14;;;;;;;;;;;8.60;99.90;;;;;;5094215;28;19978;-72
2020/12/17 13:13:41;;;;;;;;;;;8.60;99.90;;;;;;5111307;28;19993;-71
2020/12/17 13:16:07;;;;;;;;;;;8.50;99.90;;;;;;5114729;28;19927;-77
2020/12/17 13:18:34;;;;;;;;;;;8.60;99.90;;;;;;5112193;28;19928;-71
2020/12/17 13:21:00;;;;;;;;;;;8.50;99.90;;;;;;5114939;28;20387;-71
2020/12/17 13:23:28;;;;;;;;;;;8.50;99.90;;;;;;5111807;27;19973;-71
2020/12/17 13:25:54;;;;;;;;;;;8.60;99.90;;;;;;5114896;28;20010;-71
2020/12/17 13:28:22;;;;;;;;;;;8.60;99.90;;;;;;5111667;28;19931;-71
2020/12/17 13:30:48;;;;;;;;;;;8.60;99.90;;;;;;5110326;28;20395;-71
2020/12/17 13:33:15;;;;;;;;;;;8.40;99.90;;;;;;5099738;28;19924;-71
2020/12/17 13:35:41;;;;;;;;;;;8.40;99.90;;;;;;5114483;28;19931;-70
2020/12/17 13:38:07;;;;;;;;;;;8.30;99.90;;;;;;5111300;28;20261;-74
2020/12/17 13:40:34;;;;;;;;;;;8.20;99.90;;;;;;5114428;28;19924;-72
2020/12/17 13:43:01;;;;;;;;;;;8.20;99.90;;;;;;5111401;28;19923;-71
2020/12/17 13:45:28;;;;;;;;;;;8.20;99.90;;;;;;5113815;28;19928;-71
2020/12/17 13:47:54;;;;;;;;;;;8.20;99.90;;;;;;5111637;28;19924;-73
2020/12/17 13:50:22;;;;;;;;;;;8.20;99.90;;;;;;5113772;28;20301;-71
2020/12/17 13:52:49;;;;;;;;;;;8.40;99.90;;;;;;5114045;28;19932;-71
2020/12/17 13:55:15;;;;;;;;;;;8.50;99.90;;;;;;5111173;28;19928;-71
2020/12/17 13:57:42;;;;;;;;;;;8.80;99.90;;;;;;5114344;27;19924;-71
2020/12/17 14:00:08;;;;;;;;;;;8.90;99.90;;;;;;5110819;28;19943;-75
2020/12/17 14:02:35;;;;;;;;;;;8.90;99.90;;;;;;5114338;28;20285;-71
2020/12/17 14:05:02;;;;;;;;;;;9.00;99.90;;;;;;5111266;28;20032;-70
2020/12/17 14:07:29;;;;;;;;;;;8.70;99.90;;;;;;5113811;28;20448;-74
2020/12/17 14:09:55;;;;;;;;;;;8.60;99.90;;;;;;5110661;28;19923;-71
2020/12/17 14:12:22;;;;;;;;;;;8.50;99.90;;;;;;5113083;28;19966;-71
2020/12/17 14:14:48;;;;;;;;;;;8.30;99.90;;;;;;5111287;28;19969;-70
2020/12/17 14:17:15;;;;;;;;;;;8.30;99.90;;;;;;5112948;28;20389;-71
2020/12/17 14:19:42;;;;;;;;;;;8.30;99.90;;;;;;5111252;28;19923;-71
2020/12/17 14:22:08;;;;;;;;;;;8.20;99.90;;;;;;5112993;28;19924;-71
2020/12/17 14:24:35;;;;;;;;;;;8.10;99.90;;;;;;5111155;28;19988;-71
2020/12/17 14:27:02;;;;;;;;;;;8.00;99.90;;;;;;5112471;28;19924;-71
2020/12/17 14:29:29;;;;;;;;;;;8.00;99.90;;;;;;5111563;28;19927;-75
2020/12/17 14:31:56;;;;;;;;;;;8.00;99.90;;;;;;5093226;28;20023;-70